createdAt,value
2022-12-08T21:38:10.057Z,104.45
2022-12-08T21:40:38.386Z,118.63
2022-12-08T21:43:06.398Z,91.22
2022-12-08T21:45:35.320Z,99.40
2022-12-08T21:48:11.031Z,89.60
2022-12-08T21:50:39.698Z,85.03
2022-12-08T21:53:09.090Z,94.07
2022-12-08T21:55:37.220Z,90.40
2022-12-08T21:58:05.629Z,95.32
2022-12-08T22:00:33.833Z,98.25
2022-12-08T22:03:02.106Z,103.57
2022-12-08T22:05:30.250Z,93.97
2022-12-08T22:07:58.526Z,102.90
2022-12-08T22:10:28.039Z,94.80
2022-12-08T22:12:56.016Z,85.55
2022-12-08T22:15:24.054Z,71.63
2022-12-08T22:17:52.302Z,79.13
2022-12-08T22:20:20.698Z,79.85
2022-12-08T22:22:49.197Z,68.15
2022-12-08T22:25:17.319Z,70.65
2022-12-08T22:27:47.951Z,80.72
2022-12-08T22:30:16.303Z,82.97
2022-12-08T22:32:44.478Z,70.07
2022-12-08T22:35:12.713Z,64.40
2022-12-08T22:37:40.856Z,67.45
2022-12-08T22:40:10.071Z,66.07
2022-12-08T22:42:38.306Z,75.43
2022-12-08T22:45:09.349Z,52.95
2022-12-08T22:47:37.392Z,58.60
2022-12-08T22:50:07.103Z,73.78
2022-12-08T22:52:35.651Z,61.92
2022-12-08T22:55:03.687Z,58.50
2022-12-08T22:57:31.893Z,57.28
2022-12-08T22:59:59.855Z,58.00
2022-12-08T23:02:29.328Z,54.03
2022-12-08T23:04:57.936Z,59.42
2022-12-08T23:07:26.037Z,58.05
2022-12-08T23:09:54.127Z,63.75
2022-12-08T23:12:22.411Z,60.58
2022-12-08T23:14:50.508Z,80.60
2022-12-08T23:17:18.847Z,61.85
2022-12-08T23:19:48.245Z,70.80
2022-12-08T23:22:16.388Z,60.00
2022-12-08T23:24:44.627Z,69.95
2022-12-08T23:27:12.682Z,68.17
2022-12-08T23:29:40.809Z,71.30
2022-12-08T23:32:09.032Z,96.88
2022-12-08T23:34:37.049Z,79.63
2022-12-08T23:37:06.407Z,72.65
2022-12-08T23:39:34.775Z,71.00
2022-12-08T23:42:02.820Z,61.55
2022-12-08T23:44:31.481Z,49.28
2022-12-08T23:46:59.563Z,44.53
2022-12-08T23:49:28.073Z,46.17
2022-12-08T23:51:56.226Z,44.83
2022-12-08T23:54:25.799Z,50.45
2022-12-08T23:56:54.039Z,49.22
2022-12-08T23:59:22.228Z,54.53
